Aviation Digital Data Service (ADDS)

Output produced by METARs form (2317 UTC 20 January 2019)
found at http://www.aviationweather.gov/metar/data/
 
Forecast for: EDDN (NUERNBERG , DE)
Text: TAF EDDN 201700Z 2018/2118 VRB03KT 9999 FEW020
Forecast period: 1800 UTC 20 January 2019 to 1800 UTC 21 January 2019
Forecast type: FROM: standard forecast or significant change
Winds: variable direction winds at 3 MPH (3 knots; 1.5 m/s)
Visibility: 6 or more miles 10+ km)
Ceiling: at least 12,000 feet AGL
Clouds: few clouds at 2000 feet AGL
Weather: no significant weather forecast for this period
Text: PROB30
Forecast period: 1800 UTC 20 January 2019 to 1000 UTC 21 January 2019
Forecast type: TEMPORARY: The following changes expected for less than half the time period
Visibility: missing
Ceiling: 1200 feet AGL
Clouds: broken clouds at 1200 feet AGL
Weather: no significant weather forecast for this period